sensor_id;sensor_type;location;lat;lon;timestamp;pressure;altitude;pressure_sealevel;temperature;humidity
16355;BME280;8287;51.644;8.494;2023-04-24T00:01:19;98934.16;;;14.11;68.80
16355;BME280;8287;51.644;8.494;2023-04-24T00:03:46;98930.69;;;14.07;68.85
16355;BME280;8287;51.644;8.494;2023-04-24T00:06:13;98919.59;;;14.02;68.34
16355;BME280;8287;51.644;8.494;2023-04-24T00:08:42;98924.25;;;14.08;68.76
16355;BME280;8287;51.644;8.494;2023-04-24T00:11:10;98920.00;;;14.04;68.87
16355;BME280;8287;51.644;8.494;2023-04-24T00:13:37;98915.66;;;13.92;68.78
16355;BME280;8287;51.644;8.494;2023-04-24T00:16:04;98923.28;;;13.94;69.01
16355;BME280;8287;51.644;8.494;2023-04-24T00:18:31;98922.91;;;13.95;69.23
16355;BME280;8287;51.644;8.494;2023-04-24T00:20:57;98920.88;;;13.85;69.08
16355;BME280;8287;51.644;8.494;2023-04-24T00:23:24;98926.53;;;13.80;69.27
16355;BME280;8287;51.644;8.494;2023-04-24T00:25:50;98920.75;;;13.78;69.82
16355;BME280;8287;51.644;8.494;2023-04-24T00:28:18;98926.75;;;13.72;70.18
16355;BME280;8287;51.644;8.494;2023-04-24T00:30:45;98924.47;;;13.70;69.83
16355;BME280;8287;51.644;8.494;2023-04-24T00:33:11;98929.38;;;13.68;70.27
16355;BME280;8287;51.644;8.494;2023-04-24T00:35:38;98920.63;;;13.68;70.52
16355;BME280;8287;51.644;8.494;2023-04-24T00:38:05;98918.88;;;13.53;70.61
16355;BME280;8287;51.644;8.494;2023-04-24T00:40:32;98914.28;;;13.50;70.37
16355;BME280;8287;51.644;8.494;2023-04-24T00:42:58;98919.72;;;13.34;70.52
16355;BME280;8287;51.644;8.494;2023-04-24T00:45:26;98924.94;;;13.53;70.52
16355;BME280;8287;51.644;8.494;2023-04-24T00:47:53;98917.63;;;13.47;70.45
16355;BME280;8287;51.644;8.494;2023-04-24T00:50:20;98918.41;;;13.47;69.91
16355;BME280;8287;51.644;8.494;2023-04-24T00:52:47;98915.09;;;13.54;69.83
16355;BME280;8287;51.644;8.494;2023-04-24T00:55:14;98916.66;;;13.58;69.91
16355;BME280;8287;51.644;8.494;2023-04-24T00:57:41;98909.81;;;13.57;69.98
16355;BME280;8287;51.644;8.494;2023-04-24T01:00:08;98905.34;;;13.65;69.28
16355;BME280;8287;51.644;8.494;2023-04-24T01:02:39;98909.53;;;13.62;69.73
16355;BME280;8287;51.644;8.494;2023-04-24T01:05:09;98900.34;;;13.60;69.11
16355;BME280;8287;51.644;8.494;2023-04-24T01:07:37;98899.84;;;13.51;70.02
16355;BME280;8287;51.644;8.494;2023-04-24T01:10:05;98893.63;;;13.69;69.17
16355;BME280;8287;51.644;8.494;2023-04-24T01:12:32;98894.72;;;13.65;68.94
16355;BME280;8287;51.644;8.494;2023-04-24T01:14:59;98895.59;;;13.72;69.22
16355;BME280;8287;51.644;8.494;2023-04-24T01:17:25;98898.75;;;13.81;68.84
16355;BME280;8287;51.644;8.494;2023-04-24T01:19:53;98891.19;;;13.83;68.42
16355;BME280;8287;51.644;8.494;2023-04-24T01:22:23;98898.31;;;13.76;68.35
16355;BME280;8287;51.644;8.494;2023-04-24T01:24:50;98897.06;;;13.70;68.76
16355;BME280;8287;51.644;8.494;2023-04-24T01:27:16;98895.84;;;13.64;68.82
16355;BME280;8287;51.644;8.494;2023-04-24T01:29:43;98898.56;;;13.67;68.77
16355;BME280;8287;51.644;8.494;2023-04-24T01:32:10;98910.63;;;13.61;69.20
16355;BME280;8287;51.644;8.494;2023-04-24T01:34:37;98906.88;;;13.66;68.60
16355;BME280;8287;51.644;8.494;2023-04-24T01:37:04;98905.72;;;13.63;68.95
16355;BME280;8287;51.644;8.494;2023-04-24T01:39:32;98908.34;;;13.60;68.91
16355;BME280;8287;51.644;8.494;2023-04-24T01:41:59;98906.81;;;13.59;68.36
16355;BME280;8287;51.644;8.494;2023-04-24T01:44:27;98904.59;;;13.38;69.43
16355;BME280;8287;51.644;8.494;2023-04-24T01:46:54;98905.00;;;13.40;69.06
16355;BME280;8287;51.644;8.494;2023-04-24T01:49:21;98906.34;;;13.31;69.22
16355;BME280;8287;51.644;8.494;2023-04-24T01:51:49;98901.94;;;13.38;69.43
16355;BME280;8287;51.644;8.494;2023-04-24T01:54:15;98904.31;;;13.47;69.11
16355;BME280;8287;51.644;8.494;2023-04-24T01:56:43;98904.88;;;13.33;69.58
16355;BME280;8287;51.644;8.494;2023-04-24T01:59:10;98896.72;;;13.45;69.58
16355;BME280;8287;51.644;8.494;2023-04-24T02:01:38;98902.44;;;13.47;69.19
16355;BME280;8287;51.644;8.494;2023-04-24T02:04:05;98892.94;;;13.46;68.94
16355;BME280;8287;51.644;8.494;2023-04-24T02:06:32;98892.28;;;13.30;69.33
16355;BME280;8287;51.644;8.494;2023-04-24T02:08:59;98892.63;;;13.29;69.63
16355;BME280;8287;51.644;8.494;2023-04-24T02:11:25;98877.34;;;13.23;69.88
16355;BME280;8287;51.644;8.494;2023-04-24T02:13:53;98891.72;;;13.18;70.28
16355;BME280;8287;51.644;8.494;2023-04-24T02:16:20;98885.59;;;13.18;70.64
16355;BME280;8287;51.644;8.494;2023-04-24T02:18:46;98883.34;;;13.19;70.05
16355;BME280;8287;51.644;8.494;2023-04-24T02:21:13;98884.91;;;13.21;70.29
16355;BME280;8287;51.644;8.494;2023-04-24T02:23:39;98893.59;;;13.18;71.03
16355;BME280;8287;51.644;8.494;2023-04-24T02:26:06;98890.25;;;13.21;71.38
16355;BME280;8287;51.644;8.494;2023-04-24T02:28:33;98890.25;;;13.21;71.55
16355;BME280;8287;51.644;8.494;2023-04-24T02:31:01;98895.19;;;13.22;71.29
16355;BME280;8287;51.644;8.494;2023-04-24T02:33:27;98888.72;;;13.23;71.59
16355;BME280;8287;51.644;8.494;2023-04-24T02:35:54;98891.66;;;13.15;72.32
16355;BME280;8287;51.644;8.494;2023-04-24T02:38:20;98891.25;;;13.13;71.78
16355;BME280;8287;51.644;8.494;2023-04-24T02:40:49;98892.41;;;13.15;71.81
16355;BME280;8287;51.644;8.494;2023-04-24T02:43:16;98888.22;;;13.14;72.07
16355;BME280;8287;51.644;8.494;2023-04-24T02:45:42;98880.88;;;13.08;72.31
16355;BME280;8287;51.644;8.494;2023-04-24T02:48:10;98889.81;;;13.18;72.28
16355;BME280;8287;51.644;8.494;2023-04-24T02:50:37;98884.13;;;13.20;71.86
16355;BME280;8287;51.644;8.494;2023-04-24T02:53:04;98885.72;;;13.24;72.14
16355;BME280;8287;51.644;8.494;2023-04-24T02:55:30;98884.31;;;13.30;72.14
16355;BME280;8287;51.644;8.494;2023-04-24T02:57:57;98893.25;;;13.19;71.82
16355;BME280;8287;51.644;8.494;2023-04-24T03:00:23;98879.88;;;13.16;72.28
16355;BME280;8287;51.644;8.494;2023-04-24T03:02:50;98889.47;;;13.20;72.20
16355;BME280;8287;51.644;8.494;2023-04-24T03:05:18;98887.66;;;13.27;72.04
16355;BME280;8287;51.644;8.494;2023-04-24T03:07:44;98891.56;;;13.33;72.30
16355;BME280;8287;51.644;8.494;2023-04-24T03:10:11;98889.63;;;13.30;72.73
16355;BME280;8287;51.644;8.494;2023-04-24T03:12:38;98886.91;;;13.27;73.06
16355;BME280;8287;51.644;8.494;2023-04-24T03:15:05;98885.13;;;13.34;72.71
16355;BME280;8287;51.644;8.494;2023-04-24T03:17:32;98882.22;;;13.43;72.94
16355;BME280;8287;51.644;8.494;2023-04-24T03:19:59;98895.66;;;13.50;72.55
16355;BME280;8287;51.644;8.494;2023-04-24T03:22:27;98875.50;;;13.52;72.16
16355;BME280;8287;51.644;8.494;2023-04-24T03:24:53;98878.97;;;13.53;72.21
16355;BME280;8287;51.644;8.494;2023-04-24T03:27:22;98875.97;;;13.32;73.40
16355;BME280;8287;51.644;8.494;2023-04-24T03:29:48;98885.34;;;13.48;72.76
16355;BME280;8287;51.644;8.494;2023-04-24T03:32:19;98877.88;;;13.57;72.57
16355;BME280;8287;51.644;8.494;2023-04-24T03:34:45;98886.31;;;13.63;72.68
16355;BME280;8287;51.644;8.494;2023-04-24T03:37:12;98881.78;;;13.63;72.24
16355;BME280;8287;51.644;8.494;2023-04-24T03:39:40;98890.00;;;13.55;72.95
16355;BME280;8287;51.644;8.494;2023-04-24T03:42:06;98897.59;;;13.53;73.41
16355;BME280;8287;51.644;8.494;2023-04-24T03:44:33;98907.56;;;13.59;74.06
16355;BME280;8287;51.644;8.494;2023-04-24T03:47:00;98899.00;;;13.47;75.27
16355;BME280;8287;51.644;8.494;2023-04-24T03:49:27;98905.16;;;13.51;75.82
16355;BME280;8287;51.644;8.494;2023-04-24T03:51:53;98911.84;;;13.41;74.87
16355;BME280;8287;51.644;8.494;2023-04-24T03:54:20;98918.19;;;13.11;73.93
16355;BME280;8287;51.644;8.494;2023-04-24T03:56:48;98898.38;;;13.09;73.54
16355;BME280;8287;51.644;8.494;2023-04-24T03:59:14;98908.09;;;12.79;74.60
16355;BME280;8287;51.644;8.494;2023-04-24T04:01:41;98909.97;;;12.78;73.75
16355;BME280;8287;51.644;8.494;2023-04-24T04:04:08;98899.59;;;12.92;73.59
16355;BME280;8287;51.644;8.494;2023-04-24T04:06:34;98900.16;;;12.82;74.67
16355;BME280;8287;51.644;8.494;2023-04-24T04:09:01;98901.06;;;12.90;75.12
16355;BME280;8287;51.644;8.494;2023-04-24T04:11:28;98895.13;;;12.96;75.13
16355;BME280;8287;51.644;8.494;2023-04-24T04:13:56;98903.06;;;12.74;75.39
16355;BME280;8287;51.644;8.494;2023-04-24T04:16:23;98905.44;;;12.79;74.71
16355;BME280;8287;51.644;8.494;2023-04-24T04:18:49;98901.81;;;12.90;74.03
16355;BME280;8287;51.644;8.494;2023-04-24T04:21:16;98901.97;;;12.97;72.75
16355;BME280;8287;51.644;8.494;2023-04-24T04:23:42;98906.53;;;12.97;72.37
16355;BME280;8287;51.644;8.494;2023-04-24T04:26:09;98904.53;;;12.94;71.98
16355;BME280;8287;51.644;8.494;2023-04-24T04:28:35;98907.38;;;12.82;72.44
16355;BME280;8287;51.644;8.494;2023-04-24T04:31:04;98909.25;;;12.81;73.40
16355;BME280;8287;51.644;8.494;2023-04-24T04:33:32;98915.34;;;12.82;73.09
16355;BME280;8287;51.644;8.494;2023-04-24T04:35:59;98917.19;;;12.59;74.32
16355;BME280;8287;51.644;8.494;2023-04-24T04:38:26;98923.22;;;12.56;74.53
16355;BME280;8287;51.644;8.494;2023-04-24T04:40:55;98925.47;;;12.54;74.58
16355;BME280;8287;51.644;8.494;2023-04-24T04:43:23;98922.44;;;12.55;74.55
16355;BME280;8287;51.644;8.494;2023-04-24T04:45:49;98932.78;;;12.60;74.59
16355;BME280;8287;51.644;8.494;2023-04-24T04:48:18;98937.25;;;12.56;74.18
16355;BME280;8287;51.644;8.494;2023-04-24T04:50:45;98941.56;;;12.64;74.02
16355;BME280;8287;51.644;8.494;2023-04-24T04:53:11;98936.75;;;12.51;72.63
16355;BME280;8287;51.644;8.494;2023-04-24T04:55:38;98935.22;;;12.50;72.67
16355;BME280;8287;51.644;8.494;2023-04-24T04:58:05;98937.63;;;12.55;71.42
16355;BME280;8287;51.644;8.494;2023-04-24T05:00:31;98952.78;;;12.54;72.21
16355;BME280;8287;51.644;8.494;2023-04-24T05:03:00;98948.25;;;12.55;71.82
16355;BME280;8287;51.644;8.494;2023-04-24T05:05:29;98966.28;;;12.46;71.64
16355;BME280;8287;51.644;8.494;2023-04-24T05:07:55;98975.91;;;12.35;71.28
16355;BME280;8287;51.644;8.494;2023-04-24T05:10:22;98976.22;;;12.14;71.39
16355;BME280;8287;51.644;8.494;2023-04-24T05:12:49;98986.06;;;12.14;70.70
16355;BME280;8287;51.644;8.494;2023-04-24T05:15:15;98976.28;;;12.18;71.30
16355;BME280;8287;51.644;8.494;2023-04-24T05:17:42;98970.69;;;12.04;71.45
16355;BME280;8287;51.644;8.494;2023-04-24T05:20:09;98970.78;;;12.07;70.98
16355;BME280;8287;51.644;8.494;2023-04-24T05:22:37;98976.28;;;12.18;71.14
16355;BME280;8287;51.644;8.494;2023-04-24T05:25:04;98973.88;;;12.28;70.25
16355;BME280;8287;51.644;8.494;2023-04-24T05:27:31;98969.34;;;12.29;70.09
16355;BME280;8287;51.644;8.494;2023-04-24T05:29:57;98964.78;;;12.29;70.67
16355;BME280;8287;51.644;8.494;2023-04-24T05:32:24;98965.00;;;12.40;70.48
16355;BME280;8287;51.644;8.494;2023-04-24T05:34:52;98960.91;;;12.42;69.90
16355;BME280;8287;51.644;8.494;2023-04-24T05:37:18;98967.81;;;12.47;70.10
16355;BME280;8287;51.644;8.494;2023-04-24T05:39:47;98963.06;;;12.37;69.97
16355;BME280;8287;51.644;8.494;2023-04-24T05:42:13;98966.28;;;12.11;70.60
16355;BME280;8287;51.644;8.494;2023-04-24T05:44:40;98959.22;;;12.34;69.89
16355;BME280;8287;51.644;8.494;2023-04-24T05:47:06;98958.34;;;12.30;70.59
16355;BME280;8287;51.644;8.494;2023-04-24T05:49:36;98955.44;;;12.35;70.33
16355;BME280;8287;51.644;8.494;2023-04-24T05:52:02;98958.44;;;12.34;70.77
16355;BME280;8287;51.644;8.494;2023-04-24T05:54:30;98956.19;;;12.36;69.59
16355;BME280;8287;51.644;8.494;2023-04-24T05:56:58;98956.56;;;12.34;69.92
16355;BME280;8287;51.644;8.494;2023-04-24T05:59:26;98949.72;;;12.33;69.72
16355;BME280;8287;51.644;8.494;2023-04-24T06:01:53;98949.34;;;12.35;70.30
16355;BME280;8287;51.644;8.494;2023-04-24T06:04:19;98958.25;;;12.42;70.22
16355;BME280;8287;51.644;8.494;2023-04-24T06:06:46;98963.88;;;12.41;69.87
16355;BME280;8287;51.644;8.494;2023-04-24T06:09:16;98960.75;;;12.35;70.25
16355;BME280;8287;51.644;8.494;2023-04-24T06:11:43;98968.56;;;12.47;69.77
16355;BME280;8287;51.644;8.494;2023-04-24T06:14:11;98969.69;;;12.46;70.06
16355;BME280;8287;51.644;8.494;2023-04-24T06:16:37;98964.38;;;12.65;69.88
16355;BME280;8287;51.644;8.494;2023-04-24T06:19:04;98976.19;;;12.68;69.17
16355;BME280;8287;51.644;8.494;2023-04-24T06:21:30;98976.75;;;12.77;68.41
16355;BME280;8287;51.644;8.494;2023-04-24T06:23:57;98979.28;;;12.70;67.34
16355;BME280;8287;51.644;8.494;2023-04-24T06:26:24;98975.22;;;12.76;67.59
16355;BME280;8287;51.644;8.494;2023-04-24T06:28:51;98988.88;;;12.74;65.84
16355;BME280;8287;51.644;8.494;2023-04-24T06:31:20;98989.84;;;12.66;66.92
16355;BME280;8287;51.644;8.494;2023-04-24T06:33:48;98989.84;;;12.85;66.84
16355;BME280;8287;51.644;8.494;2023-04-24T06:36:15;98981.53;;;12.87;66.27
16355;BME280;8287;51.644;8.494;2023-04-24T06:38:42;98979.56;;;12.84;65.65
16355;BME280;8287;51.644;8.494;2023-04-24T06:41:09;98984.59;;;12.70;65.85
16355;BME280;8287;51.644;8.494;2023-04-24T06:43:36;98983.47;;;12.90;65.84
16355;BME280;8287;51.644;8.494;2023-04-24T06:46:02;98984.75;;;12.96;65.52
16355;BME280;8287;51.644;8.494;2023-04-24T06:48:30;98982.06;;;12.77;66.68
16355;BME280;8287;51.644;8.494;2023-04-24T06:50:57;98981.47;;;12.83;66.33
16355;BME280;8287;51.644;8.494;2023-04-24T06:53:23;98970.88;;;12.68;66.43
16355;BME280;8287;51.644;8.494;2023-04-24T06:55:50;98973.75;;;12.78;65.68
16355;BME280;8287;51.644;8.494;2023-04-24T06:58:17;98979.56;;;12.65;65.65
16355;BME280;8287;51.644;8.494;2023-04-24T07:00:44;98984.25;;;12.71;65.97
16355;BME280;8287;51.644;8.494;2023-04-24T07:03:10;98973.75;;;12.78;65.73
16355;BME280;8287;51.644;8.494;2023-04-24T07:05:38;98987.84;;;12.98;66.44
16355;BME280;8287;51.644;8.494;2023-04-24T07:08:05;98989.50;;;13.06;65.77
16355;BME280;8287;51.644;8.494;2023-04-24T07:10:33;98981.41;;;13.21;66.08
16355;BME280;8287;51.644;8.494;2023-04-24T07:13:00;98991.78;;;13.26;64.49
16355;BME280;8287;51.644;8.494;2023-04-24T07:15:27;98997.03;;;13.23;64.00
16355;BME280;8287;51.644;8.494;2023-04-24T07:17:54;98995.38;;;13.15;64.60
16355;BME280;8287;51.644;8.494;2023-04-24T07:20:20;98995.03;;;13.16;63.35
16355;BME280;8287;51.644;8.494;2023-04-24T07:22:48;98999.22;;;13.17;64.61
16355;BME280;8287;51.644;8.494;2023-04-24T07:25:16;99007.13;;;13.14;64.75
16355;BME280;8287;51.644;8.494;2023-04-24T07:27:43;99006.56;;;13.23;64.65
16355;BME280;8287;51.644;8.494;2023-04-24T07:30:10;99014.00;;;13.15;64.60
16355;BME280;8287;51.644;8.494;2023-04-24T07:32:37;99006.47;;;13.20;64.96
16355;BME280;8287;51.644;8.494;2023-04-24T07:35:04;99011.59;;;13.10;64.27
16355;BME280;8287;51.644;8.494;2023-04-24T07:37:31;99007.38;;;13.27;64.61
16355;BME280;8287;51.644;8.494;2023-04-24T07:39:59;99011.06;;;13.42;65.58
16355;BME280;8287;51.644;8.494;2023-04-24T07:42:26;99012.75;;;13.53;64.84
16355;BME280;8287;51.644;8.494;2023-04-24T07:44:52;99012.66;;;13.46;64.23
16355;BME280;8287;51.644;8.494;2023-04-24T07:47:19;99018.75;;;13.47;63.14
16355;BME280;8287;51.644;8.494;2023-04-24T07:49:46;99017.44;;;13.37;63.98
16355;BME280;8287;51.644;8.494;2023-04-24T07:52:12;99018.56;;;13.36;62.78
16355;BME280;8287;51.644;8.494;2023-04-24T07:54:39;99024.81;;;13.06;63.77
16355;BME280;8287;51.644;8.494;2023-04-24T07:57:07;99028.41;;;12.95;64.90
16355;BME280;8287;51.644;8.494;2023-04-24T07:59:33;99024.63;;;13.15;64.17
16355;BME280;8287;51.644;8.494;2023-04-24T08:02:00;99033.00;;;13.17;64.55
16355;BME280;8287;51.644;8.494;2023-04-24T08:04:27;99032.59;;;13.15;64.24
16355;BME280;8287;51.644;8.494;2023-04-24T08:06:54;99031.69;;;13.07;65.46
16355;BME280;8287;51.644;8.494;2023-04-24T08:09:20;99035.28;;;12.96;65.26
16355;BME280;8287;51.644;8.494;2023-04-24T08:11:47;99044.94;;;13.04;64.35
16355;BME280;8287;51.644;8.494;2023-04-24T08:14:15;99041.09;;;13.01;64.74
16355;BME280;8287;51.644;8.494;2023-04-24T08:16:42;99054.44;;;13.05;64.31
16355;BME280;8287;51.644;8.494;2023-04-24T08:19:08;99039.31;;;12.90;64.44
16355;BME280;8287;51.644;8.494;2023-04-24T08:21:35;99049.09;;;12.86;64.67
16355;BME280;8287;51.644;8.494;2023-04-24T08:24:01;99050.13;;;12.97;63.77
16355;BME280;8287;51.644;8.494;2023-04-24T08:26:30;99043.03;;;13.04;64.70
16355;BME280;8287;51.644;8.494;2023-04-24T08:28:57;99049.88;;;13.05;65.10
16355;BME280;8287;51.644;8.494;2023-04-24T08:31:25;99047.50;;;13.19;65.44
16355;BME280;8287;51.644;8.494;2023-04-24T08:33:52;99047.72;;;13.29;64.94
16355;BME280;8287;51.644;8.494;2023-04-24T08:36:18;99043.22;;;13.33;64.15
16355;BME280;8287;51.644;8.494;2023-04-24T08:38:45;99042.19;;;13.19;64.34
16355;BME280;8287;51.644;8.494;2023-04-24T08:41:14;99045.41;;;13.28;63.14
16355;BME280;8287;51.644;8.494;2023-04-24T08:43:41;99044.88;;;13.00;64.01
16355;BME280;8287;51.644;8.494;2023-04-24T08:46:09;99039.63;;;13.04;62.58
16355;BME280;8287;51.644;8.494;2023-04-24T08:48:38;99043.75;;;13.01;63.46
16355;BME280;8287;51.644;8.494;2023-04-24T08:51:05;99041.72;;;13.14;63.16
16355;BME280;8287;51.644;8.494;2023-04-24T08:53:33;99063.97;;;13.06;63.59
16355;BME280;8287;51.644;8.494;2023-04-24T08:56:00;99050.13;;;12.97;64.32
16355;BME280;8287;51.644;8.494;2023-04-24T08:58:28;99055.00;;;12.95;64.94
16355;BME280;8287;51.644;8.494;2023-04-24T09:00:55;99053.25;;;13.02;63.77
16355;BME280;8287;51.644;8.494;2023-04-24T09:03:21;99058.44;;;12.95;63.83
16355;BME280;8287;51.644;8.494;2023-04-24T09:05:50;99063.56;;;13.04;64.39
16355;BME280;8287;51.644;8.494;2023-04-24T09:08:19;99046.59;;;13.30;62.99
16355;BME280;8287;51.644;8.494;2023-04-24T09:10:48;99050.47;;;13.36;63.65
16355;BME280;8287;51.644;8.494;2023-04-24T09:13:15;99043.34;;;13.40;62.98
16355;BME280;8287;51.644;8.494;2023-04-24T09:15:42;99058.47;;;13.36;64.12
16355;BME280;8287;51.644;8.494;2023-04-24T09:18:09;99058.66;;;13.47;64.09
16355;BME280;8287;51.644;8.494;2023-04-24T09:21:00;99066.28;;;13.48;62.61
16355;BME280;8287;51.644;8.494;2023-04-24T09:23:28;99057.72;;;13.17;63.48
16355;BME280;8287;51.644;8.494;2023-04-24T09:25:55;99063.66;;;13.11;64.19
16355;BME280;8287;51.644;8.494;2023-04-24T09:28:26;99074.44;;;13.18;63.44
16355;BME280;8287;51.644;8.494;2023-04-24T09:31:05;99064.78;;;13.28;62.21
16355;BME280;8287;51.644;8.494;2023-04-24T09:33:32;99070.03;;;13.06;63.32
16355;BME280;8287;51.644;8.494;2023-04-24T09:36:01;99075.16;;;13.15;63.68
16355;BME280;8287;51.644;8.494;2023-04-24T09:38:31;99069.69;;;13.08;65.14
16355;BME280;8287;51.644;8.494;2023-04-24T09:40:59;99065.34;;;13.18;64.32
16355;BME280;8287;51.644;8.494;2023-04-24T09:43:27;99078.16;;;13.13;64.26
16355;BME280;8287;51.644;8.494;2023-04-24T09:45:56;99072.50;;;13.15;64.36
16355;BME280;8287;51.644;8.494;2023-04-24T09:48:31;99080.75;;;13.10;63.80
16355;BME280;8287;51.644;8.494;2023-04-24T09:50:58;99090.63;;;13.09;65.51
16355;BME280;8287;51.644;8.494;2023-04-24T09:53:27;99098.53;;;13.06;67.58
16355;BME280;8287;51.644;8.494;2023-04-24T09:55:54;99088.97;;;12.86;69.85
16355;BME280;8287;51.644;8.494;2023-04-24T09:58:24;99088.09;;;12.63;72.39
16355;BME280;8287;51.644;8.494;2023-04-24T10:00:53;99100.56;;;12.43;71.46
16355;BME280;8287;51.644;8.494;2023-04-24T10:03:20;99104.44;;;12.46;72.12
16355;BME280;8287;51.644;8.494;2023-04-24T10:05:47;99101.47;;;12.51;72.11
16355;BME280;8287;51.644;8.494;2023-04-24T10:08:13;99097.19;;;12.62;71.33
16355;BME280;8287;51.644;8.494;2023-04-24T10:10:43;99098.50;;;12.52;71.57
16355;BME280;8287;51.644;8.494;2023-04-24T10:13:11;99099.94;;;12.50;71.14
16355;BME280;8287;51.644;8.494;2023-04-24T10:15:39;99112.28;;;12.58;70.32
16355;BME280;8287;51.644;8.494;2023-04-24T10:18:07;99103.03;;;12.52;68.82
16355;BME280;8287;51.644;8.494;2023-04-24T10:20:36;99118.47;;;12.46;67.83
16355;BME280;8287;51.644;8.494;2023-04-24T10:23:03;99125.94;;;12.41;68.65
16355;BME280;8287;51.644;8.494;2023-04-24T10:25:32;99129.09;;;12.00;68.78
16355;BME280;8287;51.644;8.494;2023-04-24T10:28:01;99125.84;;;11.91;68.81
16355;BME280;8287;51.644;8.494;2023-04-24T10:30:29;99127.81;;;11.94;69.22
16355;BME280;8287;51.644;8.494;2023-04-24T10:32:56;99138.19;;;11.99;69.61
16355;BME280;8287;51.644;8.494;2023-04-24T10:35:23;99132.38;;;12.09;69.47
16355;BME280;8287;51.644;8.494;2023-04-24T10:37:56;99128.59;;;12.10;69.56
16355;BME280;8287;51.644;8.494;2023-04-24T10:40:26;99128.44;;;12.03;70.06
16355;BME280;8287;51.644;8.494;2023-04-24T10:42:53;99132.97;;;12.18;69.77
16355;BME280;8287;51.644;8.494;2023-04-24T10:45:22;99146.00;;;12.07;69.55
16355;BME280;8287;51.644;8.494;2023-04-24T10:48:08;99137.75;;;11.97;70.95
16355;BME280;8287;51.644;8.494;2023-04-24T10:50:43;99139.53;;;11.93;71.91
16355;BME280;8287;51.644;8.494;2023-04-24T10:53:15;99153.84;;;11.88;71.89
16355;BME280;8287;51.644;8.494;2023-04-24T10:55:45;99160.91;;;11.69;73.55
16355;BME280;8287;51.644;8.494;2023-04-24T10:58:13;99164.63;;;11.80;74.83
16355;BME280;8287;51.644;8.494;2023-04-24T11:00:41;99178.00;;;11.83;75.46
16355;BME280;8287;51.644;8.494;2023-04-24T11:03:23;99170.53;;;11.89;76.29
16355;BME280;8287;51.644;8.494;2023-04-24T11:05:53;99171.91;;;11.83;77.74
16355;BME280;8287;51.644;8.494;2023-04-24T11:08:25;99176.25;;;11.75;79.19
16355;BME280;8287;51.644;8.494;2023-04-24T11:11:00;99185.34;;;11.74;80.51
16355;BME280;8287;51.644;8.494;2023-04-24T11:13:31;99189.47;;;11.60;81.64
16355;BME280;8287;51.644;8.494;2023-04-24T11:16:20;99184.16;;;11.60;83.07
16355;BME280;8287;51.644;8.494;2023-04-24T11:18:51;99199.78;;;11.37;83.74
16355;BME280;8287;51.644;8.494;2023-04-24T11:21:19;99196.28;;;11.33;84.00
16355;BME280;8287;51.644;8.494;2023-04-24T11:23:47;99213.63;;;11.31;85.43
16355;BME280;8287;51.644;8.494;2023-04-24T11:26:18;99220.25;;;11.25;85.93
16355;BME280;8287;51.644;8.494;2023-04-24T11:28:46;99215.56;;;11.06;85.77
16355;BME280;8287;51.644;8.494;2023-04-24T11:31:36;99236.19;;;11.01;86.36
16355;BME280;8287;51.644;8.494;2023-04-24T11:34:10;99219.88;;;10.99;87.45
16355;BME280;8287;51.644;8.494;2023-04-24T11:36:38;99230.56;;;11.02;87.25
16355;BME280;8287;51.644;8.494;2023-04-24T11:39:05;99225.81;;;11.08;87.32
16355;BME280;8287;51.644;8.494;2023-04-24T11:41:34;99231.75;;;11.29;88.30
16355;BME280;8287;51.644;8.494;2023-04-24T11:44:01;99243.66;;;11.35;89.08
16355;BME280;8287;51.644;8.494;2023-04-24T11:46:29;99252.84;;;11.37;88.97
16355;BME280;8287;51.644;8.494;2023-04-24T11:48:58;99260.28;;;11.08;88.34
16355;BME280;8287;51.644;8.494;2023-04-24T11:51:26;99271.75;;;11.00;89.33
16355;BME280;8287;51.644;8.494;2023-04-24T11:53:53;99289.09;;;10.85;91.26
16355;BME280;8287;51.644;8.494;2023-04-24T11:56:21;99308.28;;;10.70;91.49
16355;BME280;8287;51.644;8.494;2023-04-24T11:58:48;99311.16;;;10.65;91.99
16355;BME280;8287;51.644;8.494;2023-04-24T12:01:14;99315.66;;;10.53;91.04
16355;BME280;8287;51.644;8.494;2023-04-24T12:03:41;99332.41;;;10.45;90.44
16355;BME280;8287;51.644;8.494;2023-04-24T12:06:13;99337.91;;;10.40;91.29
16355;BME280;8287;51.644;8.494;2023-04-24T12:08:39;99333.72;;;10.39;91.62
16355;BME280;8287;51.644;8.494;2023-04-24T12:11:07;99338.59;;;10.49;93.00
16355;BME280;8287;51.644;8.494;2023-04-24T12:13:34;99342.53;;;10.43;92.78
16355;BME280;8287;51.644;8.494;2023-04-24T12:16:02;99347.31;;;10.49;92.55
16355;BME280;8287;51.644;8.494;2023-04-24T12:18:29;99355.41;;;10.53;92.81
16355;BME280;8287;51.644;8.494;2023-04-24T12:21:15;99358.78;;;10.41;92.24
16355;BME280;8287;51.644;8.494;2023-04-24T12:23:42;99358.66;;;10.38;92.92
16355;BME280;8287;51.644;8.494;2023-04-24T12:26:09;99354.22;;;10.42;93.27
16355;BME280;8287;51.644;8.494;2023-04-24T12:28:38;99367.03;;;10.40;92.94
16355;BME280;8287;51.644;8.494;2023-04-24T12:31:06;99372.38;;;10.52;92.47
16355;BME280;8287;51.644;8.494;2023-04-24T12:33:33;99370.00;;;10.38;91.34
16355;BME280;8287;51.644;8.494;2023-04-24T12:36:00;99387.78;;;10.38;89.90
16355;BME280;8287;51.644;8.494;2023-04-24T12:38:29;99378.34;;;10.28;90.98
16355;BME280;8287;51.644;8.494;2023-04-24T12:41:03;99388.22;;;10.40;91.95
16355;BME280;8287;51.644;8.494;2023-04-24T12:43:30;99392.41;;;10.41;91.49
16355;BME280;8287;51.644;8.494;2023-04-24T12:45:57;99382.50;;;10.50;92.54
16355;BME280;8287;51.644;8.494;2023-04-24T12:48:24;99395.03;;;10.61;92.50
16355;BME280;8287;51.644;8.494;2023-04-24T12:50:51;99392.63;;;10.68;92.81
16355;BME280;8287;51.644;8.494;2023-04-24T12:53:17;99403.47;;;10.75;92.74
16355;BME280;8287;51.644;8.494;2023-04-24T12:55:45;99404.88;;;10.73;93.00
16355;BME280;8287;51.644;8.494;2023-04-24T12:58:17;99407.72;;;10.56;93.07
16355;BME280;8287;51.644;8.494;2023-04-24T13:00:44;99416.31;;;10.53;93.38
16355;BME280;8287;51.644;8.494;2023-04-24T13:03:11;99434.25;;;10.47;94.22
16355;BME280;8287;51.644;8.494;2023-04-24T13:05:38;99421.34;;;10.46;94.51
16355;BME280;8287;51.644;8.494;2023-04-24T13:08:04;99428.63;;;10.49;94.43
16355;BME280;8287;51.644;8.494;2023-04-24T13:10:31;99418.50;;;10.51;94.88
16355;BME280;8287;51.644;8.494;2023-04-24T13:12:59;99417.50;;;10.55;94.61